createdAt,value
2017-06-26T00:00:36.871Z,24.71
2017-06-26T00:01:47.222Z,24.71
2017-06-26T00:02:57.574Z,24.64
2017-06-26T00:04:07.939Z,24.74
2017-06-26T00:05:18.297Z,24.67
2017-06-26T00:06:28.388Z,24.74
2017-06-26T00:07:38.740Z,24.64
2017-06-26T00:08:49.121Z,24.71
2017-06-26T00:09:59.475Z,24.7
2017-06-26T00:11:09.530Z,24.7
2017-06-26T00:12:19.885Z,24.7
2017-06-26T00:13:30.248Z,24.67
2017-06-26T00:14:39.971Z,24.63
2017-06-26T00:15:49.998Z,24.58
2017-06-26T00:17:00.357Z,24.74
2017-06-26T00:18:10.449Z,24.7
2017-06-26T00:19:20.491Z,24.58
2017-06-26T00:20:30.840Z,24.56
2017-06-26T00:21:41.193Z,24.63
2017-06-26T00:22:51.546Z,24.56
2017-06-26T00:24:01.943Z,24.64
2017-06-26T00:25:11.975Z,24.55
2017-06-26T00:26:21.419Z,24.56
2017-06-26T00:27:31.762Z,24.52
2017-06-26T00:28:42.116Z,24.61
2017-06-26T00:29:52.203Z,24.56
2017-06-26T00:31:02.557Z,24.63
2017-06-26T00:32:12.275Z,24.58
2017-06-26T00:33:22.325Z,24.67
2017-06-26T00:34:32.668Z,24.66
2017-06-26T00:35:43.073Z,24.63
2017-06-26T00:36:53.436Z,24.7
2017-06-26T00:38:03.783Z,24.64
2017-06-26T00:39:13.818Z,24.69
2017-06-26T00:40:24.162Z,24.66
2017-06-26T00:41:33.935Z,24.7
2017-06-26T00:42:44.306Z,24.69
2017-06-26T00:43:54.653Z,24.7
2017-06-26T00:45:05.003Z,24.7
2017-06-26T00:46:15.039Z,24.7
2017-06-26T00:47:25.443Z,24.69
2017-06-26T00:48:35.487Z,24.7
2017-06-26T00:49:45.829Z,24.77
2017-06-26T00:50:56.163Z,24.64
2017-06-26T00:52:06.200Z,24.69
2017-06-26T00:53:15.979Z,24.69
2017-06-26T00:54:26.317Z,24.69
2017-06-26T00:55:36.662Z,24.75
2017-06-26T00:56:46.690Z,24.7
2017-06-26T00:57:56.711Z,24.69
2017-06-26T00:59:06.773Z,24.74
2017-06-26T01:00:17.129Z,24.75
2017-06-26T01:01:27.500Z,24.64
2017-06-26T01:02:37.541Z,24.66
2017-06-26T01:03:47.264Z,24.61
2017-06-26T01:04:57.619Z,24.74
2017-06-26T01:06:07.982Z,24.67
2017-06-26T01:07:18.333Z,24.69
2017-06-26T01:08:28.688Z,24.63
2017-06-26T01:09:39.017Z,24.7
2017-06-26T01:10:49.068Z,24.64
2017-06-26T01:11:59.420Z,24.7
2017-06-26T01:13:09.768Z,24.7
2017-06-26T01:14:19.484Z,24.67
2017-06-26T01:15:29.837Z,24.7
2017-06-26T01:16:40.237Z,24.69
2017-06-26T01:17:50.281Z,24.7
2017-06-26T01:19:00.622Z,24.58
2017-06-26T01:20:10.961Z,24.71
2017-06-26T01:21:20.997Z,24.58
2017-06-26T01:22:31.388Z,24.59
2017-06-26T01:23:41.723Z,24.66
2017-06-26T01:24:52.066Z,24.66
2017-06-26T01:26:02.408Z,24.58
2017-06-26T01:27:12.771Z,24.61
2017-06-26T01:28:22.792Z,24.67
2017-06-26T01:29:33.133Z,24.58
2017-06-26T01:30:43.478Z,24.56
2017-06-26T01:31:53.528Z,24.58
2017-06-26T01:33:03.863Z,24.67
2017-06-26T01:34:14.271Z,24.63
2017-06-26T01:35:24.604Z,24.56
2017-06-26T01:36:34.956Z,24.58
2017-06-26T01:37:45.300Z,24.52
2017-06-26T01:38:55.370Z,24.58
2017-06-26T01:40:05.442Z,24.63
2017-06-26T01:41:15.785Z,24.58
2017-06-26T01:42:25.819Z,24.54
2017-06-26T01:43:35.848Z,24.56
2017-06-26T01:44:46.196Z,24.59
2017-06-26T01:45:56.226Z,24.55
2017-06-26T01:47:06.245Z,24.51
2017-06-26T01:48:16.611Z,24.61
2017-06-26T01:49:26.637Z,24.61
2017-06-26T01:50:36.971Z,24.55
2017-06-26T01:51:47.387Z,24.49
2017-06-26T01:52:57.429Z,24.59
2017-06-26T01:54:07.457Z,24.55
2017-06-26T01:55:17.496Z,24.49
2017-06-26T01:56:27.537Z,24.55
2017-06-26T01:57:37.929Z,24.61
2017-06-26T01:58:48.275Z,24.55
2017-06-26T01:59:58.650Z,24.54
2017-06-26T02:01:08.988Z,24.58
2017-06-26T02:02:19.328Z,24.59
2017-06-26T02:03:29.966Z,24.61
2017-06-26T02:04:40.299Z,24.61
2017-06-26T02:05:50.655Z,24.63
2017-06-26T02:07:00.995Z,24.55
2017-06-26T02:08:11.332Z,24.61
2017-06-26T02:09:21.726Z,24.58
2017-06-26T02:10:32.068Z,24.63
2017-06-26T02:11:42.425Z,24.58
2017-06-26T02:12:52.450Z,24.66
2017-06-26T02:14:02.800Z,24.56
2017-06-26T02:15:13.053Z,24.56
2017-06-26T02:16:23.388Z,24.55
2017-06-26T02:17:33.124Z,24.56
2017-06-26T02:18:43.192Z,24.61
2017-06-26T02:19:53.218Z,24.63
2017-06-26T02:21:03.297Z,24.61
2017-06-26T02:22:13.346Z,24.7
2017-06-26T02:23:23.689Z,24.59
2017-06-26T02:24:34.036Z,24.64
2017-06-26T02:25:44.423Z,24.66
2017-06-26T02:26:54.136Z,24.56
2017-06-26T02:28:04.161Z,24.7
2017-06-26T02:29:14.207Z,24.66
2017-06-26T02:30:24.234Z,24.56
2017-06-26T02:31:34.281Z,24.58
2017-06-26T02:32:44.688Z,24.67
2017-06-26T02:33:54.725Z,24.66
2017-06-26T02:35:04.453Z,24.66
2017-06-26T02:36:14.489Z,24.71
2017-06-26T02:37:24.519Z,24.67
2017-06-26T02:38:34.921Z,24.74
2017-06-26T02:39:44.947Z,24.69
2017-06-26T02:40:55.296Z,24.7
2017-06-26T02:42:05.317Z,24.77
2017-06-26T02:43:15.656Z,24.75
2017-06-26T02:44:25.397Z,24.82
2017-06-26T02:45:35.744Z,24.82
2017-06-26T02:46:45.783Z,24.7
2017-06-26T02:47:55.810Z,24.67
2017-06-26T02:49:05.844Z,24.71
2017-06-26T02:50:16.499Z,24.82
2017-06-26T02:51:26.843Z,24.7
2017-06-26T02:52:36.863Z,24.82
2017-06-26T02:53:47.203Z,24.67
2017-06-26T02:54:57.551Z,24.78
2017-06-26T02:56:07.949Z,24.82
2017-06-26T02:57:18.296Z,24.77
2017-06-26T02:58:28.638Z,24.67
2017-06-26T02:59:39.031Z,24.67
2017-06-26T03:00:49.388Z,24.7
2017-06-26T03:33:15.686Z,22.26
2017-06-26T03:34:25.715Z,22.18
2017-06-26T03:35:36.056Z,22.15
2017-06-26T03:36:46.075Z,22.24
2017-06-26T03:37:56.406Z,22.18
2017-06-26T03:39:06.487Z,22.27
2017-06-26T03:40:16.814Z,22.39
2017-06-26T03:41:26.526Z,22.45
2017-06-26T03:42:36.880Z,22.59
2017-06-26T03:43:46.924Z,22.66
2017-06-26T03:44:57.312Z,22.79
2017-06-26T03:46:07.338Z,22.88
2017-06-26T03:47:17.356Z,22.92
2017-06-26T03:48:27.686Z,23.1
2017-06-26T03:49:38.039Z,23.21
2017-06-26T03:50:48.426Z,23.26
2017-06-26T03:51:58.770Z,23.37
2017-06-26T03:53:08.490Z,23.47
2017-06-26T03:54:18.518Z,23.57
2017-06-26T03:55:28.878Z,23.59
2017-06-26T03:56:39.238Z,23.66
2017-06-26T03:57:49.581Z,23.72
2017-06-26T03:58:59.918Z,23.74
2017-06-26T04:00:09.960Z,23.81
2017-06-26T04:01:19.983Z,23.89
2017-06-26T04:02:30.384Z,23.94
2017-06-26T04:03:40.415Z,23.9
2017-06-26T04:04:50.766Z,23.94
2017-06-26T04:06:00.484Z,24.03
2017-06-26T04:07:10.843Z,23.99
2017-06-26T04:08:21.237Z,24.07
2017-06-26T04:09:31.575Z,24.07
2017-06-26T04:10:41.650Z,24.08
2017-06-26T04:11:51.366Z,24.11
2017-06-26T04:13:01.701Z,24.09
2017-06-26T04:14:12.097Z,24.11
2017-06-26T04:15:22.449Z,24.15
2017-06-26T04:16:32.793Z,24.15
2017-06-26T04:17:42.830Z,24.15
2017-06-26T04:18:53.174Z,24.19
2017-06-26T04:20:03.534Z,24.15
2017-06-26T04:21:13.878Z,24.17
2017-06-26T04:22:23.602Z,24.14
2017-06-26T04:23:33.625Z,24.14
2017-06-26T04:24:43.654Z,24.21
2017-06-26T04:25:54.049Z,24.18
2017-06-26T04:27:04.377Z,24.33
2017-06-26T04:28:14.726Z,24.24
2017-06-26T04:29:25.069Z,24.32
2017-06-26T04:30:35.410Z,24.44
2017-06-26T04:31:45.445Z,24.87
2017-06-26T04:32:55.785Z,26.45
2017-06-26T04:34:06.139Z,27.64
2017-06-26T04:35:16.166Z,28.46
2017-06-26T04:36:26.534Z,29.65
2017-06-26T04:37:36.645Z,30.75
2017-06-26T04:38:46.685Z,31.72
2017-06-26T04:39:56.721Z,32.06
2017-06-26T04:41:07.062Z,32.68
2017-06-26T04:42:17.394Z,33.5
2017-06-26T04:43:27.787Z,34.14
2017-06-26T04:44:37.815Z,34.69
2017-06-26T04:45:47.863Z,35.08
2017-06-26T04:46:58.229Z,35.49
2017-06-26T04:48:08.570Z,35.74
2017-06-26T04:49:18.921Z,36.08
2017-06-26T04:50:29.262Z,36.46
2017-06-26T04:51:39.609Z,36.68
2017-06-26T04:52:49.943Z,36.86
2017-06-26T04:53:59.976Z,37.12
2017-06-26T04:55:10.381Z,37.27
2017-06-26T04:56:20.749Z,37.49
2017-06-26T04:57:30.468Z,37.62
2017-06-26T04:58:40.522Z,37.79
2017-06-26T04:59:50.869Z,37.86
2017-06-26T05:01:01.210Z,38
2017-06-26T05:02:11.560Z,38.12
2017-06-26T05:03:21.609Z,38.18
2017-06-26T05:04:31.963Z,38.36
2017-06-26T05:05:42.309Z,38.46
2017-06-26T05:06:52.714Z,38.56
2017-06-26T05:08:03.074Z,38.78
2017-06-26T05:09:13.433Z,38.74
2017-06-26T05:10:23.802Z,38.89
2017-06-26T05:11:34.151Z,38.96
2017-06-26T05:12:43.930Z,39.01
2017-06-26T05:13:54.287Z,39.18
2017-06-26T05:15:04.637Z,39.4
2017-06-26T05:16:14.990Z,38.3
2017-06-26T05:17:25.338Z,37.59
2017-06-26T05:18:35.444Z,36.32
2017-06-26T05:19:45.500Z,36.62
2017-06-26T05:20:55.855Z,36.09
2017-06-26T05:22:05.907Z,35.13
2017-06-26T05:23:16.280Z,34.97
2017-06-26T05:24:26.534Z,34.4
2017-06-26T05:25:36.892Z,33.85
2017-06-26T05:26:47.247Z,33.2
2017-06-26T05:27:57.297Z,32.49
2017-06-26T05:29:07.636Z,32.1
2017-06-26T05:30:18.031Z,32.19
2017-06-26T05:31:28.088Z,32.45
2017-06-26T05:32:38.129Z,32.3
2017-06-26T05:33:48.462Z,33.16
2017-06-26T05:34:58.531Z,34.24
2017-06-26T05:36:08.920Z,35.12
2017-06-26T05:37:19.257Z,35.55
2017-06-26T05:38:28.981Z,36.25
2017-06-26T05:39:39.343Z,36.77
2017-06-26T05:40:49.683Z,37.24
2017-06-26T05:42:00.092Z,37.8
2017-06-26T05:43:10.443Z,38.22
2017-06-26T05:44:20.803Z,38.59
2017-06-26T05:45:30.849Z,38.87
2017-06-26T05:46:41.195Z,39.12
2017-06-26T05:47:51.303Z,39.35
2017-06-26T05:49:01.645Z,39.69
2017-06-26T05:50:11.732Z,38.2
2017-06-26T05:51:22.071Z,37.14
2017-06-26T05:52:32.100Z,36.59
2017-06-26T05:53:42.452Z,35.82
2017-06-26T05:54:52.487Z,35.28
2017-06-26T05:56:02.535Z,34.87
2017-06-26T05:57:12.890Z,34.49
2017-06-26T05:58:23.237Z,34.36
2017-06-26T05:59:33.318Z,33.87
2017-06-26T06:00:43.676Z,33.31
2017-06-26T06:01:53.716Z,32.99
2017-06-26T06:03:04.045Z,32.64
2017-06-26T06:04:13.771Z,32.35
2017-06-26T06:05:24.113Z,32.19
2017-06-26T06:06:34.154Z,32.06
2017-06-26T06:07:44.197Z,31.94
2017-06-26T06:08:54.228Z,31.75
2017-06-26T06:10:04.572Z,31.6
2017-06-26T06:11:14.361Z,31.4
2017-06-26T06:12:24.068Z,31.47
2017-06-26T06:13:34.410Z,31.45
2017-06-26T06:14:44.439Z,31.43
2017-06-26T06:15:54.795Z,31.49
2017-06-26T06:17:05.187Z,31.36
2017-06-26T06:18:15.553Z,31.25
2017-06-26T06:19:25.907Z,31.25
2017-06-26T06:20:36.289Z,31.34
2017-06-26T06:21:46.325Z,31.43
2017-06-26T06:22:56.439Z,31.4
2017-06-26T06:24:06.799Z,31.62
2017-06-26T06:25:17.150Z,31.63
2017-06-26T06:26:27.536Z,31.94
2017-06-26T06:27:37.888Z,31.91
2017-06-26T06:28:47.966Z,31.98
2017-06-26T06:29:58.000Z,31.98
2017-06-26T06:31:08.349Z,31.87
2017-06-26T06:32:18.699Z,31.77
2017-06-26T06:33:29.048Z,31.78
2017-06-26T06:34:39.137Z,31.6
2017-06-26T06:35:49.516Z,31.43
2017-06-26T06:36:59.871Z,31.33
2017-06-26T06:38:09.916Z,31.19
2017-06-26T06:39:19.952Z,31.08
2017-06-26T06:40:30.358Z,31.38
2017-06-26T06:41:40.748Z,31.56
2017-06-26T06:42:51.101Z,31.78
2017-06-26T06:44:01.456Z,31.67
2017-06-26T06:45:11.498Z,31.72
2017-06-26T06:46:21.264Z,31.5
2017-06-26T06:47:31.632Z,31.4
2017-06-26T06:48:42.001Z,31.81
2017-06-26T06:49:52.553Z,31.88
2017-06-26T06:51:02.659Z,32.1
2017-06-26T06:52:12.740Z,32.61
2017-06-26T06:53:22.776Z,32.57
2017-06-26T06:54:32.822Z,32.15
2017-06-26T06:55:43.174Z,31.91
2017-06-26T06:56:53.209Z,31.49
2017-06-26T06:58:03.315Z,31.55
2017-06-26T06:59:13.670Z,31.9
2017-06-26T07:00:23.702Z,31.97
2017-06-26T07:01:33.764Z,31.68
2017-06-26T07:02:44.105Z,31.5
2017-06-26T07:03:54.205Z,31.47
2017-06-26T07:05:04.774Z,31.45
2017-06-26T07:06:14.857Z,31.43
2017-06-26T07:07:24.886Z,31.53
2017-06-26T07:08:35.268Z,31.4
2017-06-26T07:09:45.694Z,31.34
2017-06-26T07:10:56.240Z,31.19
2017-06-26T07:12:06.350Z,31.15
2017-06-26T07:13:16.705Z,30.81
2017-06-26T07:14:27.050Z,30.93
2017-06-26T07:15:37.095Z,30.81
2017-06-26T07:16:47.441Z,30.82
2017-06-26T07:17:57.786Z,30.73
2017-06-26T07:19:07.835Z,30.62
2017-06-26T07:20:17.561Z,30.47
2017-06-26T07:21:27.931Z,30.47
2017-06-26T07:22:37.980Z,30.45
2017-06-26T07:23:48.097Z,30.39
2017-06-26T07:24:58.153Z,30.25
2017-06-26T07:26:08.211Z,30.18
2017-06-26T07:27:18.603Z,30.22
2017-06-26T07:28:28.635Z,30.19
2017-06-26T07:29:39.010Z,30.14
2017-06-26T07:30:49.368Z,30.18
2017-06-26T07:31:59.415Z,30.13
2017-06-26T07:33:09.832Z,30.09
2017-06-26T07:34:20.197Z,30.1
2017-06-26T07:35:30.553Z,30.16
2017-06-26T07:36:40.918Z,30.07
2017-06-26T07:37:51.278Z,30.13
2017-06-26T07:39:01.371Z,30.09
2017-06-26T07:40:11.411Z,30.16
2017-06-26T07:41:21.806Z,30.18
2017-06-26T07:42:32.151Z,30.35
2017-06-26T07:43:43.331Z,30.57
2017-06-26T07:44:54.382Z,30.88
2017-06-26T07:46:04.779Z,31.22
2017-06-26T07:47:15.175Z,31.45
2017-06-26T07:48:25.536Z,31.5
2017-06-26T07:49:35.309Z,31.77
2017-06-26T07:50:45.744Z,31.58
2017-06-26T07:51:55.487Z,31.71
2017-06-26T07:53:05.855Z,31.86
2017-06-26T07:54:16.217Z,31.78
2017-06-26T07:55:26.563Z,32.01
2017-06-26T07:56:36.673Z,32.08
2017-06-26T07:57:46.699Z,32.56
2017-06-26T07:58:56.751Z,32.56
2017-06-26T08:00:07.099Z,32.65
2017-06-26T08:01:17.457Z,32.74
2017-06-26T08:02:27.862Z,32.62
2017-06-26T08:03:38.245Z,32.46
2017-06-26T08:04:48.618Z,32.38
2017-06-26T08:05:58.961Z,32.54
2017-06-26T08:07:09.012Z,32.2
2017-06-26T08:08:19.407Z,32.16
2017-06-26T08:09:29.752Z,32.25
2017-06-26T08:10:39.793Z,32.27
2017-06-26T08:11:50.149Z,32.43
2017-06-26T08:13:00.186Z,32.35
2017-06-26T08:14:10.294Z,32.3
2017-06-26T08:15:20.660Z,32.27
2017-06-26T08:16:31.011Z,32.17
2017-06-26T08:17:41.359Z,32.01
2017-06-26T08:18:51.399Z,32.05
2017-06-26T08:20:01.807Z,32
2017-06-26T08:21:12.219Z,32.13
2017-06-26T08:22:22.564Z,32.15
2017-06-26T08:23:33.134Z,32.42
2017-06-26T08:24:43.180Z,32.67
2017-06-26T08:25:53.513Z,33.24
2017-06-26T08:27:03.866Z,33.77
2017-06-26T08:28:14.216Z,34.03
2017-06-26T08:29:24.596Z,34.22
2017-06-26T08:30:34.944Z,34.39
2017-06-26T08:31:45.340Z,34.45
2017-06-26T08:32:55.401Z,34.81
2017-06-26T08:34:05.454Z,34.91
2017-06-26T08:35:15.818Z,34.78
2017-06-26T08:36:26.194Z,34.86
2017-06-26T08:37:36.602Z,34.71
2017-06-26T08:38:46.969Z,34.72
2017-06-26T08:39:57.024Z,34.79
2017-06-26T08:41:07.079Z,34.64
2017-06-26T08:42:17.427Z,34.45
2017-06-26T08:43:27.831Z,34.3
2017-06-26T08:44:37.871Z,34.48
2017-06-26T08:45:47.933Z,35.06
2017-06-26T08:46:57.993Z,35.15
2017-06-26T08:48:08.040Z,35.53
2017-06-26T08:49:18.436Z,35.8
2017-06-26T08:50:28.816Z,35.86
2017-06-26T08:51:39.201Z,36.15
2017-06-26T08:52:49.244Z,36.3
2017-06-26T08:53:59.624Z,36.32
2017-06-26T08:55:09.725Z,35.72
2017-06-26T08:56:19.770Z,35.35
2017-06-26T08:57:29.816Z,34.81
2017-06-26T08:58:40.185Z,34.46
2017-06-26T08:59:50.536Z,34.39
2017-06-26T09:01:00.956Z,33.93
2017-06-26T09:02:11.010Z,33.58
2017-06-26T09:03:21.377Z,33.77
2017-06-26T09:04:31.100Z,33.89
2017-06-26T09:05:41.455Z,34.24
2017-06-26T09:06:51.805Z,34.77
2017-06-26T09:08:02.166Z,34.87
2017-06-26T09:09:11.890Z,34.96
2017-06-26T09:10:22.245Z,34.83
2017-06-26T09:11:32.616Z,34.45
2017-06-26T09:12:42.721Z,34.29
2017-06-26T09:13:53.088Z,34.02
2017-06-26T09:15:03.450Z,33.73
2017-06-26T09:16:13.821Z,33.46
2017-06-26T09:17:24.170Z,33.21
2017-06-26T09:18:34.590Z,32.9
2017-06-26T09:19:44.959Z,32.59
2017-06-26T09:20:55.319Z,32.28
2017-06-26T09:22:05.886Z,31.97
2017-06-26T09:23:15.928Z,31.68
2017-06-26T09:24:26.020Z,31.38
2017-06-26T09:25:36.397Z,31.38
2017-06-26T09:26:46.430Z,31.31
2017-06-26T09:27:56.782Z,31.28
2017-06-26T09:29:06.833Z,31.3
2017-06-26T09:30:17.227Z,31.41
2017-06-26T09:31:27.585Z,31.52
2017-06-26T09:32:37.938Z,31.68
2017-06-26T09:33:48.297Z,31.75
2017-06-26T09:34:58.678Z,32
2017-06-26T09:36:09.080Z,32.09
2017-06-26T09:37:18.799Z,32.3
2017-06-26T09:38:29.152Z,32.43
2017-06-26T09:39:39.207Z,32.46
2017-06-26T09:40:49.242Z,32.62
2017-06-26T09:41:59.669Z,33.17
2017-06-26T09:43:09.704Z,33.53
2017-06-26T09:44:20.050Z,33.32
2017-06-26T09:45:30.097Z,33.16
2017-06-26T09:46:40.439Z,33.13
2017-06-26T09:47:50.860Z,33.24
2017-06-26T09:49:01.209Z,33.02
2017-06-26T09:50:11.563Z,33.06
2017-06-26T09:51:21.923Z,33.21
2017-06-26T09:52:32.276Z,33.26
2017-06-26T09:53:42.699Z,33.29
2017-06-26T09:54:52.763Z,33.47
2017-06-26T09:56:03.120Z,33.59
2017-06-26T09:57:13.150Z,33.92
2017-06-26T09:58:23.173Z,34.18
2017-06-26T09:59:33.267Z,34.45
2017-06-26T10:00:43.309Z,34.79
2017-06-26T10:01:53.660Z,34.96
2017-06-26T10:03:03.718Z,34.91
2017-06-26T10:04:14.098Z,34.54
2017-06-26T10:05:24.512Z,34.45
2017-06-26T10:06:34.566Z,34.43
2017-06-26T10:07:44.929Z,34.72
2017-06-26T10:08:55.308Z,35.27
2017-06-26T10:10:05.687Z,35.83
2017-06-26T10:11:15.800Z,35.89
2017-06-26T10:12:25.833Z,35.76
2017-06-26T10:13:36.199Z,35.67
2017-06-26T10:14:46.252Z,35.68
2017-06-26T10:15:56.597Z,35.71
2017-06-26T10:17:07.040Z,35.67
2017-06-26T10:18:17.408Z,35.67
2017-06-26T10:19:27.455Z,35.79
2017-06-26T10:20:37.808Z,35.83
2017-06-26T10:21:48.164Z,35.76
2017-06-26T10:22:58.272Z,35.53
2017-06-26T10:24:08.640Z,35.12
2017-06-26T10:25:18.985Z,34.77
2017-06-26T10:26:28.734Z,34.51
2017-06-26T10:27:39.094Z,34.37
2017-06-26T10:28:49.453Z,34.39
2017-06-26T10:29:59.829Z,34.43
2017-06-26T10:31:09.881Z,34.43
2017-06-26T10:32:20.285Z,34.4
2017-06-26T10:33:30.640Z,34.51
2017-06-26T10:34:40.689Z,34.83
2017-06-26T10:35:51.049Z,34.91
2017-06-26T10:37:01.398Z,35.23
2017-06-26T10:38:11.831Z,35.49
2017-06-26T10:39:21.872Z,35.5
2017-06-26T10:40:32.225Z,35.42
2017-06-26T10:41:41.958Z,35.35
2017-06-26T10:42:51.680Z,35.46
2017-06-26T10:44:01.776Z,35.47
2017-06-26T10:45:12.125Z,35.4
2017-06-26T10:46:22.164Z,35.46
2017-06-26T10:47:32.522Z,35.46
2017-06-26T10:48:42.884Z,35.58
2017-06-26T10:49:52.989Z,35.57
2017-06-26T10:51:02.726Z,35.55
2017-06-26T10:52:13.080Z,35.62
2017-06-26T10:53:23.437Z,35.79
2017-06-26T10:54:33.495Z,36.04
2017-06-26T10:55:43.282Z,36.05
2017-06-26T10:56:53.651Z,35.65
2017-06-26T10:58:04.021Z,35.28
2017-06-26T10:59:14.387Z,35.69
2017-06-26T11:00:24.454Z,35.87
2017-06-26T11:01:34.868Z,35.86
2017-06-26T11:02:45.222Z,36.43
2017-06-26T11:03:55.586Z,36.84
2017-06-26T11:05:05.939Z,37.07
2017-06-26T11:06:16.287Z,36.73
2017-06-26T11:07:26.725Z,36.58
2017-06-26T11:08:37.085Z,36.4
2017-06-26T11:09:47.129Z,36.32
2017-06-26T11:10:57.174Z,36.63
2017-06-26T11:12:07.203Z,37.17
2017-06-26T11:13:16.981Z,37.34
2017-06-26T11:14:27.326Z,37.48
2017-06-26T11:15:37.382Z,37.24
2017-06-26T11:16:47.734Z,37.09
2017-06-26T11:17:58.108Z,36.83
2017-06-26T11:19:08.154Z,36.62
2017-06-26T11:20:18.513Z,36.52
2017-06-26T11:21:28.873Z,36.51
2017-06-26T11:22:38.602Z,36.49
2017-06-26T11:23:48.966Z,36.55
2017-06-26T11:24:59.377Z,36.56
2017-06-26T11:26:09.731Z,36.19
2017-06-26T11:27:19.786Z,36.09
2017-06-26T11:28:30.138Z,36.4
2017-06-26T11:29:40.537Z,36.65
2017-06-26T11:30:50.926Z,36.73
2017-06-26T11:32:01.305Z,36.75
2017-06-26T11:33:11.659Z,36.88
2017-06-26T11:34:22.013Z,37.07
2017-06-26T11:35:32.357Z,36.67
2017-06-26T11:36:42.754Z,36.77
2017-06-26T11:37:53.112Z,36.53
2017-06-26T11:39:03.157Z,36.34
2017-06-26T11:40:13.235Z,36.28
2017-06-26T11:41:23.273Z,36.61
2017-06-26T11:42:33.681Z,36.88
2017-06-26T11:43:43.729Z,37.17
2017-06-26T11:44:54.083Z,37.41
2017-06-26T11:46:04.440Z,37.36
2017-06-26T11:47:14.809Z,37.45
2017-06-26T11:48:25.151Z,37.42
2017-06-26T11:49:35.190Z,37.29
2017-06-26T11:50:45.262Z,36.55
2017-06-26T11:51:55.319Z,36.41
2017-06-26T11:53:05.673Z,36.59
2017-06-26T11:54:16.088Z,36.7
2017-06-26T11:55:25.815Z,36.73
2017-06-26T11:56:35.855Z,36.63
2017-06-26T11:57:45.897Z,36.81
2017-06-26T11:58:55.633Z,37.04
2017-06-26T12:00:05.716Z,37.05
2017-06-26T12:01:16.076Z,36.9
2017-06-26T12:02:26.456Z,36.89
2017-06-26T12:03:36.824Z,36.77
2017-06-26T12:04:47.169Z,36.7
2017-06-26T12:05:57.284Z,36.68
2017-06-26T12:07:07.346Z,36.65
2017-06-26T12:08:17.703Z,36.67
2017-06-26T12:09:28.057Z,36.59
2017-06-26T12:10:38.113Z,36.58
2017-06-26T12:11:48.514Z,36.46
2017-06-26T12:12:58.868Z,36.34
2017-06-26T12:14:08.923Z,36.39
2017-06-26T12:15:18.957Z,36.28
2017-06-26T12:16:29.312Z,36.25
2017-06-26T12:17:39.409Z,36.32
2017-06-26T12:18:49.442Z,36.06
2017-06-26T12:19:59.821Z,36.25
2017-06-26T12:21:10.185Z,36.3
2017-06-26T12:22:19.914Z,36.33
2017-06-26T12:23:29.693Z,36.39
2017-06-26T12:24:40.102Z,36.43
2017-06-26T12:25:50.484Z,36.44
2017-06-26T12:27:00.525Z,36.39
2017-06-26T12:28:10.872Z,36.46
2017-06-26T12:29:21.280Z,36.55
2017-06-26T12:30:31.647Z,36.65
2017-06-26T12:31:42.005Z,36.73
2017-06-26T12:32:52.389Z,36.81
2017-06-26T12:34:02.461Z,36.78
2017-06-26T12:35:12.832Z,36.59
2017-06-26T12:36:23.185Z,36.24
2017-06-26T12:37:33.550Z,36.37
2017-06-26T12:38:43.902Z,36.43
2017-06-26T12:39:54.243Z,36.36
2017-06-26T12:41:04.591Z,36.28
2017-06-26T12:42:14.952Z,36.18
2017-06-26T12:43:25.345Z,36.12
2017-06-26T12:44:35.698Z,36.12
2017-06-26T12:45:45.738Z,35.94
2017-06-26T12:46:56.105Z,35.94
2017-06-26T12:48:06.139Z,35.84
2017-06-26T12:49:16.244Z,35.72
2017-06-26T12:50:26.606Z,35.74
2017-06-26T12:51:36.644Z,35.47
2017-06-26T12:52:47.002Z,35.08
2017-06-26T12:53:57.351Z,34.83
2017-06-26T12:55:07.763Z,35.2
2017-06-26T12:56:17.822Z,35.11
2017-06-26T12:57:27.853Z,35.46
2017-06-26T12:58:38.230Z,35.82
2017-06-26T12:59:47.963Z,35.87
2017-06-26T13:00:58.375Z,36.06
2017-06-26T13:02:08.733Z,36.19
2017-06-26T13:03:19.105Z,35.72
2017-06-26T13:04:29.461Z,35.8
2017-06-26T13:05:39.810Z,35.96
2017-06-26T13:06:49.606Z,36.04
2017-06-26T13:07:59.648Z,36.08
2017-06-26T13:09:10.010Z,36.22
2017-06-26T13:10:20.050Z,36.25
2017-06-26T13:11:30.391Z,36.25
2017-06-26T13:12:40.739Z,36.28
2017-06-26T13:13:50.482Z,36.33
2017-06-26T13:15:00.826Z,35.79
2017-06-26T13:16:10.879Z,35.55
2017-06-26T13:17:21.249Z,35.35
2017-06-26T13:18:31.361Z,35.4
2017-06-26T13:19:41.725Z,35.45
2017-06-26T13:20:52.091Z,35.77
2017-06-26T13:22:02.138Z,36.46
2017-06-26T13:23:12.496Z,36.88
2017-06-26T13:24:22.911Z,37.26
2017-06-26T13:25:33.294Z,37.36
2017-06-26T13:26:43.650Z,37.49
2017-06-26T13:27:53.999Z,37.39
2017-06-26T13:29:04.367Z,37.05
2017-06-26T13:30:14.457Z,36.75
2017-06-26T13:31:24.802Z,36.47
2017-06-26T13:32:35.156Z,36.41
2017-06-26T13:33:44.877Z,36.43
2017-06-26T13:34:54.915Z,36.36
2017-06-26T13:36:05.328Z,36.32
2017-06-26T13:37:15.373Z,36.18
2017-06-26T13:38:25.714Z,36.09
2017-06-26T13:39:35.761Z,35.94
2017-06-26T13:40:46.129Z,36.04
2017-06-26T13:41:56.215Z,35.96
2017-06-26T13:43:06.258Z,36.09
2017-06-26T13:44:16.296Z,36.04
2017-06-26T13:45:26.346Z,36.17
2017-06-26T13:46:36.722Z,36.04
2017-06-26T13:47:46.823Z,36.06
2017-06-26T13:48:57.175Z,35.96
2017-06-26T13:50:07.530Z,35.95
2017-06-26T13:51:17.571Z,35.87
2017-06-26T13:52:27.945Z,35.82
2017-06-26T13:53:38.053Z,35.82
2017-06-26T13:54:48.097Z,35.82
2017-06-26T13:55:57.818Z,35.72
2017-06-26T13:57:08.183Z,35.72
2017-06-26T13:58:18.246Z,35.74
2017-06-26T13:59:28.666Z,35.68
2017-06-26T14:00:39.018Z,35.72
2017-06-26T14:01:49.065Z,35.65
2017-06-26T14:02:59.419Z,35.67
2017-06-26T14:04:09.772Z,35.72
2017-06-26T14:05:20.190Z,35.8
2017-06-26T14:06:30.551Z,35.8
2017-06-26T14:07:40.583Z,35.84
2017-06-26T14:08:50.951Z,35.77
2017-06-26T14:10:01.011Z,35.53
2017-06-26T14:11:11.107Z,35.71
2017-06-26T14:12:21.477Z,35.79
2017-06-26T14:13:31.844Z,35.89
2017-06-26T14:14:42.204Z,35.95
2017-06-26T14:15:52.255Z,35.92
2017-06-26T14:17:02.598Z,35.92
2017-06-26T14:18:12.645Z,35.79
2017-06-26T14:19:22.994Z,35.76
2017-06-26T14:20:33.355Z,35.79
2017-06-26T14:21:43.395Z,35.84
2017-06-26T14:22:53.426Z,35.89
2017-06-26T14:24:03.768Z,35.83
2017-06-26T14:25:13.529Z,35.77
2017-06-26T14:26:23.874Z,35.82
2017-06-26T14:27:34.224Z,35.76
2017-06-26T14:28:44.321Z,35.79
2017-06-26T14:29:54.706Z,35.72
2017-06-26T14:31:04.451Z,35.6
2017-06-26T14:32:14.839Z,35.57
2017-06-26T14:33:25.242Z,35.61
2017-06-26T14:34:35.347Z,35.57
2017-06-26T14:35:45.726Z,35.57
2017-06-26T14:36:56.095Z,35.5
2017-06-26T14:38:06.462Z,35.53
2017-06-26T14:39:16.844Z,35.45
2017-06-26T14:40:27.229Z,35.43
2017-06-26T14:41:37.622Z,35.42
2017-06-26T14:42:48.017Z,35.43
2017-06-26T14:43:58.401Z,35.3
2017-06-26T14:45:08.487Z,35.35
2017-06-26T14:46:18.584Z,35.31
2017-06-26T14:47:28.961Z,35.35
2017-06-26T14:48:39.602Z,35.39
2017-06-26T14:49:50.240Z,35.4
2017-06-26T14:51:00.646Z,35.45
2017-06-26T14:52:11.120Z,35.38
2017-06-26T14:53:22.056Z,35.47
2017-06-26T14:54:32.451Z,35.57
2017-06-26T14:55:42.823Z,35.6
2017-06-26T14:56:52.952Z,35.57
2017-06-26T14:58:03.686Z,35.5
2017-06-26T14:59:14.452Z,35.52
2017-06-26T15:00:25.361Z,35.58
2017-06-26T15:01:36.006Z,35.53
2017-06-26T15:02:46.714Z,35.55
2017-06-26T15:03:57.407Z,35.47
2017-06-26T15:05:07.844Z,35.38
2017-06-26T15:06:18.742Z,35.39
2017-06-26T15:07:29.586Z,35.35
2017-06-26T15:08:39.715Z,35.43
2017-06-26T15:09:50.089Z,35.49
2017-06-26T15:11:00.471Z,35.5
2017-06-26T15:12:10.565Z,35.55
2017-06-26T15:13:20.344Z,35.45
2017-06-26T15:14:30.709Z,35.52
2017-06-26T15:15:40.803Z,35.47
2017-06-26T15:16:50.863Z,35.34
2017-06-26T15:18:00.954Z,35.42
2017-06-26T15:19:11.360Z,35.38
2017-06-26T15:20:21.715Z,35.26
2017-06-26T15:21:32.091Z,35.33
2017-06-26T15:22:41.835Z,35.28
2017-06-26T15:23:51.258Z,35.3
2017-06-26T15:25:01.622Z,35.38
2017-06-26T15:26:11.668Z,35.3
2017-06-26T15:27:22.086Z,35.31
2017-06-26T15:28:32.438Z,35.39
2017-06-26T15:29:43.044Z,35.34
2017-06-26T15:30:53.408Z,35.3
2017-06-26T15:32:03.770Z,35.35
2017-06-26T15:33:14.204Z,35.28
2017-06-26T15:34:24.574Z,35.28
2017-06-26T15:35:34.632Z,35.38
2017-06-26T15:36:44.978Z,35.27
2017-06-26T15:37:55.333Z,35.28
2017-06-26T15:39:05.715Z,35.31